Clare, MI (48617)

12:35 AM EDT on September 05, 2015 (GMT -0400)
Maple Grove | | Change Station
CLOSE
Current Station
Personal Weather Station
Location: Farwell, MI
Elevation: 1023 ft
Nearby Weather Stations

Elev 1023 ft 43.84 °N, 84.90 °W | Updated 7 seconds ago

Overcast
Overcast
71.8 °F
Feels Like 70 °F
N
0.0
Wind Variable Wind from ESE
Gusts 0.0 mph

Today
High -- | Low -- °F
--% Chance of Precip.
Yesterday
High -- | Low -- °F
Precip. -- in
7:06 AM 8:07 PM
Waning Gibbous, 52% visible
Pressure 30.07 in
Visibility 1.8 miles
Clouds Scattered Clouds 1900 ft
Scattered Clouds 4400 ft
Overcast 6500 ft
Heat Index 70 °F
Dew Point 68 °F
Humidity 87%
Rainfall 0.00 in
Snow Depth Not available.
UV 0 out of 12
Pollen 9.70 out of 12
Air Quality Not available.
Flu Activity Not available.
METAR KMOP 050416Z AUTO 00000KT 1 3/4SM BR SCT019 SCT044 OVC065 22/21 A3007 RMK AO2 T02160206
Pressure 30.07 in
Visibility 1.8 miles
Clouds Scattered Clouds 1900 ft
Scattered Clouds 4400 ft
Overcast 6500 ft
Heat Index 70 °F
Dew Point 68 °F
Humidity 87%
Rainfall 0.00 in
Snow Depth Not available.
UV 0 out of 12
Pollen 9.70 out of 12
Air Quality Not available.
Flu Activity Not available.
METAR KMOP 050416Z AUTO 00000KT 1 3/4SM BR SCT019 SCT044 OVC065 22/21 A3007 RMK AO2 T02160206

10-Day Weather Forecast

×

Almanac

Astronomy

Sep. 05, 2015 Rise Set
Actual Time
Civil Twilight
Nautical Twilight
Astronomical Twilight
Moon
Length of Visible Light
Length of Day
Tomorrow will be .
, % of the Moon is Illuminated

Today's Extremes

State Highs State Lows

Community

WunderPhotos

Upload Photos

1,852,425 photos uploaded!

WunderBlogs® & News

Nearby

Air Quality

  Air Quality AQ Index Pollutant
Not available.

Snow Depth

Station Depth Elevation

Earthquake Activity

City Distance Mag. Time & Date
Minimum magnitude displayed is 2.5.

Coastal Water Temperatures

Place Temperature

Stations

Nearby Weather Stations

Station Location Temp. Windchill Dew Point Humidity Wind Precip. Elev Updated Type